Waialua, Hawaii
Current Conditions -  °F | °C
As of 1:58 PM on Friday 24 Oct 2014 (Local Time) from PHHI Reporting Station
Clear Clear  
Wind Chill: 28°   Ceiling: Unl
Heat Index: 29°   Visibility: 10mi
Dew Point: 20°   Wind: 13mph
Humidity: 61%   Direction: 90°E
Pressure: 30.01"   Gusts: NA
Location:  21.57°N, 158.12°W
Report Text: PHHI 242358Z AUTO 09011KT 10SM CLR 28/20 A3001 RMK AO2 SLP151 60000 T02780197 10285 20240 57020 $
Loading
Personal Weather Stations






























Interactive Weather Map
Tropical Storm Tracking
New forecast layout! Learn more

10-Day Weather Forecast

Advertisements
Track Severe Weather on mobile